Time;durP1;ratioP1;P1;durP2;ratioP2;P2;SDS_P1;SDS_P2;PMS_P1;PMS_P2;Temp;Humidity;BMP_temperature;BMP_pressure;BME280_temperature;BME280_humidity;BME280_pressure;Samples;Min_cycle;Max_cycle;Signal;HPM_P1;HPM_P2
2022/05/27 17:10:31;;;;;;;;;;;;;;;14.99;57.78;100231.83;5329892;54;46126;-73
2022/05/27 17:15:36;;;;;;;1.60;0.70;;;;;;;14.91;58.05;100240.59;5123624;57;972205;-73
2022/05/27 17:20:42;;;;;;;2.73;1.00;;;;;;;14.76;57.98;100248.29;5105365;57;1136859;-73
2022/05/27 17:25:48;;;;;;;3.33;1.30;;;;;;;14.58;58.77;100251.44;4899950;59;1139079;-73
2022/05/27 17:30:54;;;;;;;6.87;2.30;;;;;;;14.50;59.62;100264.67;4815838;57;1139159;-72
2022/05/27 17:36:00;;;;;;;6.17;1.67;;;;;;;14.43;59.11;100276.89;5001985;57;1139034;-73
2022/05/27 17:41:09;;;;;;;7.77;1.50;;;;;;;14.27;57.19;100289.48;5050071;57;1139030;-72
2022/05/27 17:46:14;;;;;;;2.37;1.20;;;;;;;14.12;57.50;100299.42;5047756;57;1138862;-75
2022/05/27 17:51:21;;;;;;;4.43;2.00;;;;;;;13.96;57.98;100292.08;5048462;57;1138963;-75
2022/05/27 17:56:29;;;;;;;4.50;1.20;;;;;;;13.93;58.01;100283.05;5045891;56;1138985;-75
2022/05/27 18:01:35;;;;;;;18.57;2.50;;;;;;;13.87;58.17;100281.00;5098384;57;1139275;-75
2022/05/27 18:06:41;;;;;;;4.57;1.37;;;;;;;13.82;58.00;100276.11;5144629;56;1141075;-75
2022/05/27 18:11:48;;;;;;;8.23;1.30;;;;;;;13.72;58.22;100284.13;5134638;56;1139001;-74
2022/05/27 18:16:55;;;;;;;1.70;0.73;;;;;;;13.65;58.22;100284.34;5125362;56;1139007;-74
2022/05/27 18:22:01;;;;;;;5.90;2.67;;;;;;;13.56;58.17;100289.21;5141431;56;1139121;-76
2022/05/27 18:27:07;;;;;;;4.83;1.17;;;;;;;13.45;58.83;100290.68;5143032;56;1139156;-75
2022/05/27 18:32:13;;;;;;;19.27;6.37;;;;;;;13.29;59.52;100287.80;5142589;56;1139177;-74
2022/05/27 18:37:18;;;;;;;3.20;0.83;;;;;;;13.18;60.14;100279.96;5141724;56;1141339;-74
2022/05/27 18:42:24;;;;;;;7.80;3.00;;;;;;;13.00;60.66;100275.81;5142443;56;1139025;-75
2022/05/27 18:47:30;;;;;;;51.13;17.03;;;;;;;12.92;61.25;100279.67;5142402;56;1136916;-75
2022/05/27 18:52:36;;;;;;;6.33;1.87;;;;;;;12.80;62.32;100282.96;5142403;56;1141161;-74
2022/05/27 18:57:42;;;;;;;5.43;1.80;;;;;;;12.75;62.66;100291.81;5142423;56;1137270;-74
2022/05/27 19:02:48;;;;;;;21.23;9.70;;;;;;;12.65;63.82;100275.90;5142476;57;1137256;-74
2022/05/27 19:07:56;;;;;;;0.97;0.70;;;;;;;12.51;63.93;100278.12;5130409;56;1138956;-75
2022/05/27 19:13:01;;;;;;;3.87;1.40;;;;;;;12.35;63.87;100293.23;5044129;57;1137273;-74
2022/05/27 19:18:09;;;;;;;2.60;1.00;;;;;;;12.23;64.86;100278.38;5044249;58;1136882;-75
2022/05/27 19:23:15;;;;;;;2.03;0.70;;;;;;;12.11;65.52;100280.78;5042960;57;1137061;-74
2022/05/27 19:28:21;;;;;;;1.30;1.20;;;;;;;11.96;66.60;100285.62;5032330;57;1137506;-73
2022/05/27 19:33:28;;;;;;;2.03;0.90;;;;;;;11.86;67.94;100289.56;5049839;58;1136927;-75
2022/05/27 19:38:34;;;;;;;2.87;1.20;;;;;;;11.73;68.76;100294.70;5048082;58;1137205;-73
2022/05/27 19:43:45;;;;;;;4.23;0.97;;;;;;;11.62;69.04;100289.81;5048001;58;1137278;-74
2022/05/27 19:48:52;;;;;;;2.67;0.60;;;;;;;11.53;69.41;100289.77;5048532;57;1137403;-73
2022/05/27 19:54:01;;;;;;;3.93;1.27;;;;;;;11.42;70.42;100279.27;5048500;57;1137177;-73
2022/05/27 20:09:58;;;;;;;2.47;0.80;;;;;;;11.22;71.65;100265.05;5125913;56;1139345;-74
2022/05/27 20:15:08;;;;;;;4.50;1.00;;;;;;;11.10;72.30;100262.11;5214063;56;1138975;-74
2022/05/27 20:20:17;;;;;;;3.07;1.10;;;;;;;11.12;72.22;100267.64;5214683;56;1139022;-74
2022/05/27 20:25:24;;;;;;;2.37;1.10;;;;;;;11.08;72.83;100275.48;5218803;56;1138928;-74
2022/05/27 20:30:31;;;;;;;4.23;1.00;;;;;;;11.04;72.56;100274.05;5169721;56;1139054;-75
2022/05/27 20:41:01;;;;;;;1.63;0.73;;;;;;;10.86;73.42;100267.14;5205147;56;1139014;-76
2022/05/27 20:46:06;;;;;;;1.13;0.73;;;;;;;10.78;73.82;100260.34;5182037;56;1139418;-75
2022/05/27 20:51:12;;;;;;;1.63;0.80;;;;;;;10.75;73.47;100269.84;5196898;56;1139217;-75
2022/05/27 20:56:22;;;;;;;2.73;1.20;;;;;;;10.72;73.54;100255.55;5177223;56;1139050;-74
2022/05/27 21:01:33;;;;;;;4.13;0.90;;;;;;;10.72;73.45;100273.22;5184028;56;1139049;-75
2022/05/27 21:06:35;;;;;;;3.67;1.20;;;;;;;10.69;74.08;100276.14;5209607;56;1139222;-74
2022/05/27 21:11:44;;;;;;;1.77;0.80;;;;;;;10.62;74.14;100271.81;5172355;56;1139200;-75
2022/05/27 21:16:50;;;;;;;3.10;0.67;;;;;;;10.57;75.19;100270.86;5208566;56;1139292;-76
2022/05/27 21:21:57;;;;;;;9.07;1.13;;;;;;;10.54;75.58;100269.78;5212396;56;1139226;-74
2022/05/27 21:27:04;;;;;;;3.13;1.10;;;;;;;10.45;76.82;100269.70;5156228;56;1139076;-74
2022/05/27 21:32:10;;;;;;;1.83;0.97;;;;;;;10.37;77.02;100266.85;5155480;56;1139012;-73
2022/05/27 21:37:16;;;;;;;2.63;0.63;;;;;;;10.33;77.71;100270.22;5155193;56;1139284;-74
2022/05/27 21:42:21;;;;;;;3.30;0.80;;;;;;;10.25;79.03;100268.66;5211400;56;1139038;-74
2022/05/27 21:47:27;;;;;;;9.33;1.23;;;;;;;10.23;79.30;100263.48;5218947;56;1139519;-74
2022/05/27 21:52:33;;;;;;;2.87;0.90;;;;;;;10.17;79.79;100271.89;5219037;56;1139560;-74
2022/05/27 21:57:38;;;;;;;7.03;0.80;;;;;;;10.05;80.57;100252.22;5219450;56;1138968;-75
2022/05/27 22:02:45;;;;;;;3.40;1.03;;;;;;;10.04;81.17;100257.14;5188205;56;1139038;-76
2022/05/27 22:07:50;;;;;;;5.40;1.43;;;;;;;9.99;81.93;100248.25;5190690;56;1139137;-75
2022/05/27 22:12:56;;;;;;;3.60;0.80;;;;;;;9.96;82.12;100243.69;5220949;56;1136967;-73
2022/05/27 22:18:02;;;;;;;10.57;1.73;;;;;;;9.87;83.30;100243.95;5221787;56;1137140;-75
2022/05/27 22:23:08;;;;;;;2.63;0.80;;;;;;;9.87;83.13;100238.19;5221774;56;1139555;-74
2022/05/27 22:28:14;;;;;;;2.40;0.70;;;;;;;9.80;84.64;100240.09;5221816;56;1134778;-74
2022/05/27 22:33:19;;;;;;;4.47;1.33;;;;;;;9.75;84.64;100237.84;5221783;56;1134839;-74
2022/05/27 22:38:25;;;;;;;2.93;1.00;;;;;;;9.76;84.45;100225.47;5221552;56;1134915;-74
2022/05/27 22:43:31;;;;;;;6.23;1.43;;;;;;;9.71;84.78;100213.94;5221740;56;1135074;-75
2022/05/27 22:48:37;;;;;;;18.53;2.20;;;;;;;9.69;85.06;100211.05;5221664;56;1134760;-75
2022/05/27 22:53:48;;;;;;;3.43;0.73;;;;;;;9.66;84.18;100202.05;5221683;56;1137218;-73
2022/05/27 22:58:51;;;;;;;3.57;1.00;;;;;;;9.67;83.71;100201.09;5150166;56;1134781;-73
2022/05/27 23:03:57;;;;;;;4.53;0.90;;;;;;;9.60;83.40;100187.55;5172335;56;1134873;-74
2022/05/27 23:09:03;;;;;;;3.97;0.93;;;;;;;9.63;84.91;100182.48;5190848;56;1134889;-75
2022/05/27 23:19:32;;;;;;;5.90;1.25;;;;;;;9.61;85.21;100171.23;5190946;57;1134828;-76
2022/05/27 23:24:38;;;;;;;7.63;1.13;;;;;;;9.67;84.71;100168.08;5190670;57;1134824;-75
2022/05/27 23:29:43;;;;;;;3.30;1.00;;;;;;;9.71;84.85;100168.20;5190420;56;1135159;-74
2022/05/27 23:34:49;;;;;;;8.50;1.23;;;;;;;9.77;85.27;100162.45;5190653;56;1134787;-74
2022/05/27 23:39:55;;;;;;;6.57;1.30;;;;;;;9.80;85.46;100164.82;5203172;56;1135138;-74
2022/05/27 23:45:01;;;;;;;6.77;2.00;;;;;;;9.83;85.75;100155.34;5221739;56;1132843;-73
2022/05/27 23:50:07;;;;;;;2.77;0.80;;;;;;;9.83;85.39;100160.14;5217229;56;1132956;-76
2022/05/27 23:55:13;;;;;;;3.17;1.10;;;;;;;9.83;86.39;100136.85;5190039;56;1136924;-74
